createdAt,value
2023-01-19T00:00:56.291Z,6.63
2023-01-19T00:03:23.244Z,7.47
2023-01-19T00:05:50.513Z,7.88
2023-01-19T00:08:18.761Z,7.93
2023-01-19T00:10:48.266Z,7.07
2023-01-19T00:13:15.922Z,8.68
2023-01-19T00:15:43.282Z,10.20
2023-01-19T00:18:11.130Z,6.38
2023-01-19T00:20:41.569Z,10.02
2023-01-19T00:23:09.535Z,7.38
2023-01-19T00:25:42.665Z,8.02
2023-01-19T00:28:15.346Z,7.72
2023-01-19T00:30:43.255Z,7.28
2023-01-19T00:33:13.771Z,8.38
2023-01-19T00:35:42.685Z,7.43
2023-01-19T00:38:11.154Z,7.53
2023-01-19T00:40:38.172Z,9.07
2023-01-19T00:43:05.190Z,10.43
2023-01-19T00:45:33.900Z,6.82
2023-01-19T00:48:00.963Z,8.00
2023-01-19T00:50:30.161Z,7.13
2023-01-19T00:53:00.953Z,12.63
2023-01-19T00:55:29.243Z,8.27
2023-01-19T00:57:56.383Z,9.13
2023-01-19T01:00:23.795Z,7.85
2023-01-19T01:02:52.985Z,6.65
2023-01-19T01:05:20.180Z,7.90
2023-01-19T01:07:49.533Z,9.13
2023-01-19T01:10:22.202Z,9.95
2023-01-19T01:12:57.385Z,7.85
2023-01-19T01:15:27.530Z,8.13
2023-01-19T01:17:55.241Z,7.43
2023-01-19T01:20:27.009Z,8.40
2023-01-19T01:22:55.059Z,7.40
2023-01-19T01:25:24.856Z,7.47
2023-01-19T01:27:52.352Z,6.18
2023-01-19T01:30:20.329Z,10.57
2023-01-19T01:32:47.624Z,7.90
2023-01-19T01:35:14.919Z,7.75
2023-01-19T01:37:42.763Z,7.82
2023-01-19T01:40:13.389Z,9.68
2023-01-19T01:42:40.730Z,7.90
2023-01-19T01:45:15.412Z,7.45
2023-01-19T01:47:46.280Z,10.30
2023-01-19T01:50:29.653Z,7.32
2023-01-19T01:53:06.647Z,8.10
2023-01-19T01:55:46.049Z,8.23
2023-01-19T01:58:16.123Z,7.38
2023-01-19T02:01:02.253Z,8.35
2023-01-19T02:03:29.853Z,6.55
2023-01-19T02:06:01.249Z,7.25
2023-01-19T02:08:47.133Z,8.57
2023-01-19T02:11:32.827Z,8.07
2023-01-19T02:13:59.846Z,6.72
2023-01-19T02:16:26.876Z,8.95
2023-01-19T02:18:53.866Z,10.05
2023-01-19T02:21:52.145Z,8.88
2023-01-19T02:24:20.164Z,7.60
2023-01-19T02:26:49.061Z,7.82
2023-01-19T02:29:21.361Z,8.43
2023-01-19T02:31:48.588Z,7.28
2023-01-19T02:34:19.041Z,9.05
2023-01-19T02:37:10.017Z,7.18
2023-01-19T02:39:42.115Z,7.05
2023-01-19T02:42:15.154Z,8.90
2023-01-19T02:44:45.608Z,8.02
2023-01-19T02:47:13.216Z,8.60
2023-01-19T02:49:40.331Z,10.60
2023-01-19T02:52:15.561Z,8.93
2023-01-19T02:54:58.335Z,11.30
2023-01-19T02:57:49.462Z,8.23
2023-01-19T03:00:28.414Z,7.28
2023-01-19T03:03:16.288Z,9.90
2023-01-19T03:06:07.817Z,9.43
2023-01-19T03:08:59.009Z,6.72
2023-01-19T03:11:32.088Z,8.18
2023-01-19T03:14:09.014Z,11.65
2023-01-19T03:16:48.539Z,7.22
2023-01-19T03:19:27.590Z,8.45
2023-01-19T03:22:29.395Z,6.88
2023-01-19T03:25:01.381Z,8.90
2023-01-19T03:27:40.921Z,7.07
2023-01-19T03:30:15.876Z,8.88
2023-01-19T03:32:48.804Z,10.63
2023-01-19T03:35:19.647Z,7.85
2023-01-19T03:37:50.891Z,7.40
2023-01-19T03:40:18.141Z,9.23
2023-01-19T03:42:45.572Z,8.93
2023-01-19T03:45:14.183Z,10.38
2023-01-19T03:47:41.965Z,8.48
2023-01-19T03:50:15.150Z,8.65
2023-01-19T03:52:42.183Z,16.83
2023-01-19T03:55:10.039Z,10.93
2023-01-19T03:57:37.418Z,11.25
2023-01-19T04:00:05.267Z,11.60
2023-01-19T04:02:39.010Z,10.07
2023-01-19T04:05:06.438Z,11.77
2023-01-19T04:07:33.392Z,9.77
2023-01-19T04:10:00.300Z,10.57
2023-01-19T04:12:27.490Z,10.55
2023-01-19T04:14:54.583Z,11.20
2023-01-19T04:17:21.474Z,8.73
2023-01-19T04:19:48.521Z,10.30
2023-01-19T04:22:15.436Z,11.57
2023-01-19T04:24:42.442Z,11.48
2023-01-19T04:27:09.347Z,11.35
2023-01-19T04:29:36.303Z,9.35
2023-01-19T04:32:03.273Z,11.38
2023-01-19T04:34:30.289Z,13.27
2023-01-19T04:36:57.232Z,10.65
2023-01-19T04:39:24.248Z,12.77
2023-01-19T04:41:52.056Z,11.35
2023-01-19T04:44:19.032Z,10.32
2023-01-19T04:46:46.313Z,13.63
2023-01-19T04:49:13.408Z,22.20
2023-01-19T04:51:40.362Z,14.48
2023-01-19T04:54:09.075Z,14.25
2023-01-19T04:56:36.923Z,9.82
2023-01-19T04:59:04.028Z,8.88
2023-01-19T05:01:31.219Z,16.50
2023-01-19T05:04:03.725Z,12.68
2023-01-19T05:06:30.662Z,13.45
2023-01-19T05:08:57.663Z,16.60
2023-01-19T05:11:24.587Z,15.63
2023-01-19T05:13:51.617Z,16.38
2023-01-19T05:16:18.582Z,12.95
2023-01-19T05:18:45.556Z,13.85
2023-01-19T05:21:12.487Z,13.48
2023-01-19T05:23:39.416Z,12.05
2023-01-19T05:26:06.415Z,15.75
2023-01-19T05:28:34.035Z,11.85
2023-01-19T05:31:01.312Z,13.23
2023-01-19T05:33:28.498Z,15.68
2023-01-19T05:35:56.012Z,13.90
2023-01-19T05:38:34.398Z,15.52
2023-01-19T05:41:02.522Z,14.80
2023-01-19T05:43:29.540Z,15.95
2023-01-19T05:45:56.485Z,14.50
2023-01-19T05:48:23.479Z,15.32
2023-01-19T05:50:50.494Z,14.75
2023-01-19T05:53:17.769Z,12.63
2023-01-19T05:55:44.975Z,10.77
2023-01-19T05:58:12.115Z,13.90
2023-01-19T06:00:39.218Z,14.88
2023-01-19T06:03:06.647Z,14.52
2023-01-19T06:05:34.095Z,13.52
2023-01-19T06:08:01.942Z,17.27
2023-01-19T06:10:29.030Z,14.85
2023-01-19T06:12:56.023Z,11.80
2023-01-19T06:15:23.109Z,14.02
2023-01-19T06:17:50.001Z,16.85
2023-01-19T06:20:17.431Z,17.13
2023-01-19T06:22:44.488Z,15.38
2023-01-19T06:25:12.009Z,14.60
2023-01-19T06:27:39.930Z,12.48
2023-01-19T06:30:07.553Z,11.65
2023-01-19T06:32:34.483Z,12.73
2023-01-19T06:35:01.679Z,13.00
2023-01-19T06:37:30.550Z,11.30
2023-01-19T06:39:57.508Z,13.00
2023-01-19T06:42:24.508Z,10.35
2023-01-19T06:44:51.443Z,14.45
2023-01-19T06:47:18.446Z,14.25
2023-01-19T06:49:45.365Z,14.23
2023-01-19T06:52:16.152Z,16.25
2023-01-19T06:54:45.405Z,12.57
2023-01-19T06:57:13.197Z,14.85
2023-01-19T06:59:40.404Z,15.30
2023-01-19T07:02:26.557Z,14.70
2023-01-19T07:04:54.488Z,14.70
2023-01-19T07:07:21.516Z,13.63
2023-01-19T07:09:48.484Z,15.35
2023-01-19T07:12:15.411Z,12.65
2023-01-19T07:14:42.811Z,13.98
2023-01-19T07:17:10.836Z,17.90
2023-01-19T07:19:38.089Z,19.10
2023-01-19T07:22:05.049Z,16.20
2023-01-19T07:24:33.680Z,12.18
2023-01-19T07:27:00.728Z,16.45
2023-01-19T07:29:27.798Z,14.32
2023-01-19T07:31:55.249Z,18.55
2023-01-19T07:34:22.446Z,16.40
2023-01-19T07:36:49.573Z,11.73
2023-01-19T07:39:16.725Z,16.38
2023-01-19T07:41:43.681Z,15.55
2023-01-19T07:44:10.649Z,15.25
2023-01-19T07:46:37.562Z,13.82
2023-01-19T07:49:04.779Z,17.83
2023-01-19T07:51:31.941Z,15.18
2023-01-19T07:53:58.913Z,14.13
2023-01-19T07:56:27.794Z,15.05
2023-01-19T07:58:54.921Z,17.45
2023-01-19T08:01:22.341Z,19.33
2023-01-19T08:03:49.996Z,17.23
2023-01-19T08:06:26.301Z,15.00
2023-01-19T08:08:53.289Z,13.73
2023-01-19T08:11:20.190Z,17.10
2023-01-19T08:13:47.453Z,13.88
2023-01-19T08:16:14.395Z,15.02
2023-01-19T08:18:41.549Z,11.60
2023-01-19T08:21:09.009Z,14.40
2023-01-19T08:23:36.082Z,16.77
2023-01-19T08:26:17.089Z,15.23
2023-01-19T08:28:44.086Z,11.07
2023-01-19T08:31:19.697Z,16.27
2023-01-19T08:33:47.952Z,17.95
2023-01-19T08:36:14.943Z,18.38
2023-01-19T08:38:44.702Z,14.68
2023-01-19T08:41:12.192Z,16.65
2023-01-19T08:43:39.189Z,15.55
2023-01-19T08:46:06.835Z,16.27
2023-01-19T08:48:34.130Z,15.30
2023-01-19T08:51:01.121Z,12.02
2023-01-19T08:53:28.615Z,13.95
2023-01-19T08:55:57.560Z,17.45
2023-01-19T08:58:24.620Z,13.05
2023-01-19T09:00:52.734Z,15.43
2023-01-19T09:03:21.674Z,15.05
2023-01-19T09:05:49.088Z,12.80
2023-01-19T09:08:16.238Z,13.55
2023-01-19T09:10:51.198Z,12.88
2023-01-19T09:13:20.292Z,19.27
2023-01-19T09:15:47.633Z,15.88
2023-01-19T09:18:17.827Z,19.85
2023-01-19T09:20:46.272Z,16.60
2023-01-19T09:23:15.577Z,16.73
2023-01-19T09:25:45.071Z,19.45
2023-01-19T09:28:14.690Z,14.10
2023-01-19T09:30:43.308Z,22.80
2023-01-19T09:33:13.130Z,17.35
2023-01-19T09:35:40.605Z,15.07
2023-01-19T09:38:09.053Z,16.35
2023-01-19T09:40:45.508Z,11.00
2023-01-19T09:43:19.775Z,19.23
2023-01-19T09:45:57.577Z,17.10
2023-01-19T09:48:42.082Z,13.65
2023-01-19T09:51:20.391Z,14.98
2023-01-19T09:53:52.532Z,14.02
2023-01-19T09:56:21.055Z,14.82
2023-01-19T09:58:51.060Z,13.27
2023-01-19T10:01:36.068Z,13.80
2023-01-19T10:04:35.995Z,17.70
2023-01-19T10:07:08.950Z,11.52
2023-01-19T10:09:49.338Z,14.40
2023-01-19T10:12:50.969Z,12.57
2023-01-19T10:15:32.747Z,14.82
2023-01-19T10:18:05.575Z,13.07
2023-01-19T10:20:39.900Z,13.50
2023-01-19T10:23:32.389Z,11.23
2023-01-19T10:26:03.183Z,15.80
2023-01-19T10:28:30.507Z,15.77
2023-01-19T10:30:57.646Z,15.00
2023-01-19T10:33:24.859Z,12.68
2023-01-19T10:35:51.792Z,12.15
2023-01-19T10:38:22.491Z,12.68
2023-01-19T10:40:56.563Z,12.32
2023-01-19T10:43:35.388Z,14.07
2023-01-19T10:46:06.821Z,9.48
2023-01-19T10:48:42.064Z,12.85
2023-01-19T10:51:10.767Z,11.32
2023-01-19T10:53:38.344Z,12.23
2023-01-19T10:56:23.212Z,16.48
2023-01-19T10:58:50.548Z,14.05
2023-01-19T11:01:20.842Z,15.02
2023-01-19T11:03:48.093Z,15.55
2023-01-19T11:06:20.931Z,11.18
2023-01-19T11:08:51.495Z,12.45
2023-01-19T11:11:20.636Z,13.32
2023-01-19T11:14:05.314Z,12.95
2023-01-19T11:16:34.879Z,18.20
2023-01-19T11:19:03.235Z,11.65
2023-01-19T11:21:32.125Z,16.83
2023-01-19T11:24:08.990Z,13.30
2023-01-19T11:26:49.269Z,13.32
2023-01-19T11:29:22.731Z,16.77
2023-01-19T11:31:50.735Z,11.65
2023-01-19T11:34:39.850Z,11.82
2023-01-19T11:37:27.346Z,15.10
2023-01-19T11:39:58.090Z,13.57
2023-01-19T11:42:26.609Z,12.43
2023-01-19T11:44:56.274Z,14.20
2023-01-19T11:47:52.616Z,13.70
2023-01-19T11:50:31.745Z,11.77
2023-01-19T11:53:17.594Z,23.63
2023-01-19T11:55:50.901Z,11.57
2023-01-19T11:58:19.213Z,14.75
2023-01-19T12:00:54.767Z,19.20
2023-01-19T12:03:32.573Z,11.30
2023-01-19T12:06:06.973Z,14.80
2023-01-19T12:08:42.408Z,12.07
2023-01-19T12:11:14.864Z,10.63
2023-01-19T12:13:44.148Z,15.48
2023-01-19T12:16:19.983Z,14.93
2023-01-19T12:19:18.711Z,17.92
2023-01-19T12:21:49.278Z,14.82
2023-01-19T12:24:25.993Z,10.93
2023-01-19T12:27:17.697Z,11.68
2023-01-19T12:29:46.378Z,11.80
2023-01-19T12:32:13.404Z,9.35
2023-01-19T12:34:48.645Z,11.73
2023-01-19T12:37:30.551Z,10.48
2023-01-19T12:40:05.628Z,10.02
2023-01-19T12:42:34.116Z,10.50
2023-01-19T12:45:13.582Z,12.38
2023-01-19T12:47:53.206Z,11.27
2023-01-19T12:50:23.427Z,8.88
2023-01-19T12:52:57.269Z,11.75
2023-01-19T12:55:33.279Z,12.77
2023-01-19T12:58:21.851Z,12.98
2023-01-19T13:00:51.346Z,10.82
2023-01-19T13:03:18.338Z,22.10
2023-01-19T13:05:49.021Z,9.77
2023-01-19T13:08:18.440Z,10.65
2023-01-19T13:11:01.943Z,10.77
2023-01-19T13:13:38.794Z,11.85
2023-01-19T13:16:21.321Z,9.07
2023-01-19T13:18:48.568Z,14.38
2023-01-19T13:21:39.756Z,11.07
2023-01-19T13:24:22.457Z,13.57
2023-01-19T13:26:49.481Z,10.25
2023-01-19T13:29:36.495Z,12.43
2023-01-19T13:32:16.904Z,12.43
2023-01-19T13:35:02.911Z,11.75
2023-01-19T13:37:37.266Z,8.60
2023-01-19T13:40:05.029Z,9.07
2023-01-19T13:42:39.397Z,12.40
2023-01-19T13:45:34.223Z,10.23
2023-01-19T13:48:05.115Z,12.95
2023-01-19T13:50:35.823Z,10.65
2023-01-19T13:53:04.649Z,7.60
2023-01-19T13:55:32.162Z,9.43
2023-01-19T13:57:59.126Z,8.88
2023-01-19T14:00:30.870Z,9.93
2023-01-19T14:03:13.337Z,16.50
2023-01-19T14:05:42.539Z,10.55
2023-01-19T14:08:12.333Z,15.07
2023-01-19T14:10:47.862Z,17.48
2023-01-19T14:13:20.611Z,12.85
2023-01-19T14:15:51.640Z,10.65
2023-01-19T14:18:21.308Z,15.00
2023-01-19T14:20:55.412Z,13.25
2023-01-19T14:23:40.540Z,10.43
2023-01-19T14:26:40.188Z,10.63
2023-01-19T14:29:12.002Z,15.75
2023-01-19T14:31:48.051Z,16.90
2023-01-19T14:34:38.991Z,10.38
2023-01-19T14:37:16.733Z,11.80
2023-01-19T14:39:55.659Z,13.75
2023-01-19T14:42:29.638Z,10.93
2023-01-19T14:44:59.086Z,17.77
2023-01-19T14:47:39.856Z,11.90
2023-01-19T14:50:18.963Z,10.38
2023-01-19T14:52:59.491Z,14.80
2023-01-19T14:55:35.098Z,10.80
2023-01-19T14:58:02.318Z,11.10
2023-01-19T15:00:29.473Z,11.50
2023-01-19T15:02:56.496Z,9.68
2023-01-19T15:05:23.880Z,11.15
2023-01-19T15:07:52.113Z,13.57
2023-01-19T15:10:24.008Z,13.57
2023-01-19T15:12:52.778Z,13.70
2023-01-19T15:15:32.415Z,13.23
2023-01-19T15:18:01.641Z,11.93
2023-01-19T15:20:28.809Z,20.35
2023-01-19T15:22:55.870Z,20.80
2023-01-19T15:25:26.197Z,26.85
2023-01-19T15:27:57.039Z,21.17
2023-01-19T15:30:45.015Z,15.77
2023-01-19T15:33:21.578Z,15.68
2023-01-19T15:35:48.778Z,17.40
2023-01-19T15:38:15.901Z,15.38
2023-01-19T15:40:44.116Z,12.40
2023-01-19T15:43:11.750Z,13.48
2023-01-19T15:45:43.938Z,13.13
2023-01-19T15:48:11.917Z,19.38
2023-01-19T15:50:44.076Z,15.43
2023-01-19T15:53:16.357Z,12.27
2023-01-19T15:55:43.780Z,14.43
2023-01-19T15:58:13.944Z,17.25
2023-01-19T16:00:41.627Z,15.20
2023-01-19T16:03:10.285Z,20.02
2023-01-19T16:05:42.868Z,12.68
2023-01-19T16:08:15.573Z,13.52
2023-01-19T16:10:43.461Z,12.50
2023-01-19T16:13:11.964Z,10.07
2023-01-19T16:15:40.089Z,12.75
2023-01-19T16:18:07.129Z,10.43
2023-01-19T16:20:34.382Z,14.40
2023-01-19T16:23:16.771Z,11.55
2023-01-19T16:25:44.286Z,10.40
2023-01-19T16:28:11.537Z,11.68
2023-01-19T16:30:38.508Z,11.35
2023-01-19T16:33:05.612Z,11.45
2023-01-19T16:35:32.572Z,12.40
2023-01-19T16:37:59.482Z,13.10
2023-01-19T16:40:26.528Z,11.85
2023-01-19T16:42:53.483Z,14.93
2023-01-19T16:45:20.608Z,12.85
2023-01-19T16:47:50.682Z,12.32
2023-01-19T16:50:17.926Z,14.00
2023-01-19T16:52:45.195Z,11.38
2023-01-19T16:55:12.320Z,11.75
2023-01-19T16:57:39.226Z,11.95
2023-01-19T17:00:09.354Z,14.13
2023-01-19T17:02:36.723Z,14.45
2023-01-19T17:05:04.374Z,15.07
2023-01-19T17:07:31.368Z,18.50
2023-01-19T17:09:58.371Z,14.10
2023-01-19T17:12:25.363Z,14.32
2023-01-19T17:14:52.289Z,13.70
2023-01-19T17:17:19.295Z,14.18
2023-01-19T17:19:46.220Z,14.23
2023-01-19T17:22:14.300Z,12.23
2023-01-19T17:24:42.532Z,12.52
2023-01-19T17:27:10.054Z,14.10
2023-01-19T17:29:37.266Z,15.05
2023-01-19T17:32:04.696Z,12.85
2023-01-19T17:34:32.059Z,16.02
2023-01-19T17:37:03.107Z,15.25
2023-01-19T17:39:30.470Z,12.48
2023-01-19T17:41:58.219Z,14.48
2023-01-19T17:44:25.256Z,10.05
2023-01-19T17:46:52.211Z,14.55
2023-01-19T17:49:19.533Z,12.48
2023-01-19T17:51:51.840Z,12.15
2023-01-19T17:54:18.903Z,11.13
2023-01-19T17:56:45.886Z,16.15
2023-01-19T17:59:13.007Z,13.50
2023-01-19T18:01:40.519Z,13.88
2023-01-19T18:04:08.989Z,14.38
2023-01-19T18:06:37.074Z,11.48
2023-01-19T18:09:05.016Z,11.90
2023-01-19T18:11:32.062Z,12.02
2023-01-19T18:14:01.006Z,11.90
2023-01-19T18:16:29.964Z,14.73
2023-01-19T18:18:58.085Z,17.33
2023-01-19T18:21:28.224Z,11.45
2023-01-19T18:24:02.306Z,16.30
2023-01-19T18:26:29.936Z,12.13
2023-01-19T18:28:57.473Z,10.70
2023-01-19T18:31:25.425Z,10.32
2023-01-19T18:33:52.800Z,15.50
2023-01-19T18:36:20.306Z,11.57
2023-01-19T18:38:47.898Z,13.90
2023-01-19T18:41:16.944Z,14.00
2023-01-19T18:43:44.977Z,19.70
2023-01-19T18:46:12.657Z,15.55
2023-01-19T18:48:40.033Z,15.07
2023-01-19T18:51:12.715Z,15.35
2023-01-19T18:53:40.380Z,19.35
2023-01-19T18:56:15.309Z,17.05
2023-01-19T18:58:42.931Z,15.35
2023-01-19T19:01:26.430Z,13.25
2023-01-19T19:03:55.410Z,15.73
2023-01-19T19:06:24.075Z,15.32
2023-01-19T19:08:55.767Z,14.57
2023-01-19T19:11:24.762Z,18.90
2023-01-19T19:13:57.410Z,18.70
2023-01-19T19:16:25.031Z,18.27
2023-01-19T19:18:52.269Z,15.73
2023-01-19T19:21:21.234Z,18.95
2023-01-19T19:23:56.729Z,18.83
2023-01-19T19:26:25.644Z,18.23
2023-01-19T19:28:52.700Z,17.23
2023-01-19T19:31:22.183Z,21.92
2023-01-19T19:33:50.925Z,18.95
2023-01-19T19:36:19.856Z,16.30
2023-01-19T19:38:48.682Z,17.27
2023-01-19T19:41:22.596Z,17.08
2023-01-19T19:43:50.476Z,18.92
2023-01-19T19:46:21.801Z,17.23
2023-01-19T19:48:49.594Z,16.00
2023-01-19T19:51:22.807Z,17.98
2023-01-19T19:53:51.880Z,20.52
2023-01-19T19:56:22.657Z,21.05
2023-01-19T19:58:51.234Z,20.98
2023-01-19T20:01:21.325Z,15.93
2023-01-19T20:03:49.339Z,17.27
2023-01-19T20:06:20.841Z,18.48
2023-01-19T20:08:49.474Z,16.88
2023-01-19T20:11:20.516Z,19.45
2023-01-19T20:13:47.777Z,21.20
2023-01-19T20:16:17.437Z,26.05
2023-01-19T20:18:51.430Z,23.65
2023-01-19T20:21:23.043Z,22.63
2023-01-19T20:23:51.118Z,17.98
2023-01-19T20:26:21.884Z,21.05
2023-01-19T20:28:48.908Z,24.42
2023-01-19T20:31:17.799Z,21.58
2023-01-19T20:33:46.064Z,24.65
2023-01-19T20:36:14.000Z,25.05
2023-01-19T20:38:41.819Z,22.63
2023-01-19T20:41:11.111Z,24.40
2023-01-19T20:43:39.039Z,27.42
2023-01-19T20:46:06.532Z,21.00
2023-01-19T20:48:33.713Z,24.23
2023-01-19T20:51:12.984Z,26.27
2023-01-19T20:53:41.456Z,21.98
2023-01-19T20:56:11.972Z,21.23
2023-01-19T20:58:39.268Z,23.42
2023-01-19T21:01:22.146Z,21.20
2023-01-19T21:03:49.460Z,22.27
2023-01-19T21:06:25.724Z,23.25
2023-01-19T21:08:52.964Z,19.13
2023-01-19T21:11:21.365Z,21.15
2023-01-19T21:13:50.688Z,22.15
2023-01-19T21:16:17.996Z,21.60
2023-01-19T21:18:44.936Z,24.13
2023-01-19T21:21:24.592Z,20.60
2023-01-19T21:23:57.491Z,21.65
2023-01-19T21:26:24.574Z,23.77
2023-01-19T21:28:51.571Z,19.23
2023-01-19T21:31:18.632Z,18.15
2023-01-19T21:33:45.673Z,19.45
2023-01-19T21:36:12.748Z,20.30
2023-01-19T21:38:39.843Z,22.55
2023-01-19T21:41:09.746Z,21.42
2023-01-19T21:43:39.173Z,25.40
2023-01-19T21:46:13.651Z,22.08
2023-01-19T21:48:42.335Z,22.98
2023-01-19T21:51:10.087Z,26.67
2023-01-19T21:53:37.186Z,21.92
2023-01-19T21:56:07.130Z,21.92
2023-01-19T21:58:34.273Z,24.50
2023-01-19T22:01:07.234Z,21.33
2023-01-19T22:03:34.344Z,24.17
2023-01-19T22:06:09.582Z,22.50
2023-01-19T22:08:37.489Z,22.83
2023-01-19T22:11:10.030Z,22.35
2023-01-19T22:13:40.706Z,24.48
2023-01-19T22:16:18.904Z,20.90
2023-01-19T22:18:51.658Z,20.80
2023-01-19T22:21:21.258Z,21.75
2023-01-19T22:23:53.809Z,22.58
2023-01-19T22:26:21.084Z,23.45
2023-01-19T22:28:48.094Z,17.65
2023-01-19T22:31:17.053Z,21.08
2023-01-19T22:33:44.748Z,20.80
2023-01-19T22:36:24.801Z,23.55
2023-01-19T22:39:03.861Z,20.92
2023-01-19T22:41:36.568Z,25.77
2023-01-19T22:44:07.263Z,21.30
2023-01-19T22:46:36.385Z,20.63
2023-01-19T22:49:04.816Z,21.77
2023-01-19T22:51:32.694Z,19.90
2023-01-19T22:54:00.285Z,21.70
2023-01-19T22:56:30.490Z,16.95
2023-01-19T22:58:58.561Z,16.88
2023-01-19T23:01:53.226Z,22.50
2023-01-19T23:04:20.376Z,20.38
2023-01-19T23:06:50.422Z,20.65
2023-01-19T23:09:18.156Z,20.05
2023-01-19T23:11:50.500Z,22.33
2023-01-19T23:14:20.832Z,18.80
2023-01-19T23:16:48.527Z,20.23
2023-01-19T23:19:17.202Z,18.02
2023-01-19T23:21:44.700Z,20.10
2023-01-19T23:24:12.364Z,17.60
2023-01-19T23:26:39.449Z,16.70
2023-01-19T23:29:15.626Z,18.02
2023-01-19T23:31:45.343Z,18.42
2023-01-19T23:34:13.495Z,20.15
2023-01-19T23:36:41.457Z,21.38
2023-01-19T23:39:16.315Z,17.85
2023-01-19T23:41:43.311Z,22.10
2023-01-19T23:44:10.374Z,18.08
2023-01-19T23:46:37.400Z,20.15
2023-01-19T23:49:04.615Z,21.42
2023-01-19T23:51:32.720Z,20.33
2023-01-19T23:54:00.508Z,21.98
2023-01-19T23:56:30.044Z,17.80
2023-01-19T23:59:02.248Z,19.77
